sensor_id;sensor_type;location;lat;lon;timestamp;P1;durP1;ratioP1;P2;durP2;ratioP2
43664;SDS011;29263;48.172;11.484;2022-08-04T00:16:57;1.73;;;1.10;;
43664;SDS011;29263;48.172;11.484;2022-08-04T00:23:07;1.20;;;1.10;;
43664;SDS011;29263;48.172;11.484;2022-08-04T00:25:48;1.83;;;1.30;;
43664;SDS011;29263;48.172;11.484;2022-08-04T00:28:42;2.55;;;1.80;;
43664;SDS011;29263;48.172;11.484;2022-08-04T00:31:51;1.75;;;1.55;;
43664;SDS011;29263;48.172;11.484;2022-08-04T00:34:58;4.25;;;1.60;;
43664;SDS011;29263;48.172;11.484;2022-08-04T00:38:17;4.78;;;1.67;;
43664;SDS011;29263;48.172;11.484;2022-08-04T00:48:46;2.03;;;1.20;;
43664;SDS011;29263;48.172;11.484;2022-08-04T01:19:33;1.75;;;1.27;;
43664;SDS011;29263;48.172;11.484;2022-08-04T01:32:39;2.13;;;1.50;;
43664;SDS011;29263;48.172;11.484;2022-08-04T01:42:48;2.03;;;1.48;;
43664;SDS011;29263;48.172;11.484;2022-08-04T01:49:22;1.50;;;1.40;;
43664;SDS011;29263;48.172;11.484;2022-08-04T01:52:41;2.45;;;1.45;;
43664;SDS011;29263;48.172;11.484;2022-08-04T01:55:51;2.88;;;1.50;;
43664;SDS011;29263;48.172;11.484;2022-08-04T01:58:49;2.15;;;1.85;;
43664;SDS011;29263;48.172;11.484;2022-08-04T02:02:25;2.70;;;1.55;;
43664;SDS011;29263;48.172;11.484;2022-08-04T02:05:59;1.98;;;1.38;;
43664;SDS011;29263;48.172;11.484;2022-08-04T02:26:18;2.25;;;1.80;;
43664;SDS011;29263;48.172;11.484;2022-08-04T02:33:20;1.30;;;1.17;;
43664;SDS011;29263;48.172;11.484;2022-08-04T02:37:02;1.60;;;1.50;;
43664;SDS011;29263;48.172;11.484;2022-08-04T02:39:52;3.92;;;1.55;;
43664;SDS011;29263;48.172;11.484;2022-08-04T02:46:52;2.78;;;2.00;;
43664;SDS011;29263;48.172;11.484;2022-08-04T02:49:59;2.05;;;1.83;;
43664;SDS011;29263;48.172;11.484;2022-08-04T02:52:45;2.33;;;2.13;;
43664;SDS011;29263;48.172;11.484;2022-08-04T02:55:57;2.10;;;1.52;;
43664;SDS011;29263;48.172;11.484;2022-08-04T03:02:27;2.25;;;1.92;;
43664;SDS011;29263;48.172;11.484;2022-08-04T03:05:33;1.80;;;1.33;;
43664;SDS011;29263;48.172;11.484;2022-08-04T03:15:31;2.10;;;1.77;;
43664;SDS011;29263;48.172;11.484;2022-08-04T03:26:24;7.13;;;1.90;;
43664;SDS011;29263;48.172;11.484;2022-08-04T03:56:11;2.45;;;1.63;;
43664;SDS011;29263;48.172;11.484;2022-08-04T04:04:59;3.83;;;1.67;;
43664;SDS011;29263;48.172;11.484;2022-08-04T04:10:45;3.55;;;1.85;;
43664;SDS011;29263;48.172;11.484;2022-08-04T04:17:08;54.53;;;41.95;;
43664;SDS011;29263;48.172;11.484;2022-08-04T04:20:04;1999.90;;;999.90;;
43664;SDS011;29263;48.172;11.484;2022-08-04T04:36:29;1999.90;;;999.90;;
43664;SDS011;29263;48.172;11.484;2022-08-04T04:59:35;1999.90;;;999.90;;
43664;SDS011;29263;48.172;11.484;2022-08-04T05:17:16;1999.90;;;999.90;;
43664;SDS011;29263;48.172;11.484;2022-08-04T05:22:53;1999.90;;;999.90;;
43664;SDS011;29263;48.172;11.484;2022-08-04T05:28:05;1999.90;;;999.90;;
43664;SDS011;29263;48.172;11.484;2022-08-04T05:30:59;1999.90;;;999.90;;
43664;SDS011;29263;48.172;11.484;2022-08-04T05:33:30;1999.90;;;999.90;;
43664;SDS011;29263;48.172;11.484;2022-08-04T05:36:02;1999.90;;;999.90;;
43664;SDS011;29263;48.172;11.484;2022-08-04T05:38:36;1999.90;;;999.90;;
43664;SDS011;29263;48.172;11.484;2022-08-04T05:41:03;1999.90;;;999.90;;
43664;SDS011;29263;48.172;11.484;2022-08-04T05:43:31;1999.90;;;999.90;;
43664;SDS011;29263;48.172;11.484;2022-08-04T05:45:58;1999.90;;;999.90;;
43664;SDS011;29263;48.172;11.484;2022-08-04T05:48:25;1999.90;;;999.90;;
43664;SDS011;29263;48.172;11.484;2022-08-04T05:50:52;1999.90;;;999.90;;
43664;SDS011;29263;48.172;11.484;2022-08-04T05:53:19;1999.90;;;999.90;;
43664;SDS011;29263;48.172;11.484;2022-08-04T05:55:46;1999.90;;;999.90;;
43664;SDS011;29263;48.172;11.484;2022-08-04T05:58:13;1999.90;;;999.90;;
43664;SDS011;29263;48.172;11.484;2022-08-04T06:00:41;1999.90;;;999.90;;
43664;SDS011;29263;48.172;11.484;2022-08-04T06:03:07;1999.90;;;999.90;;
43664;SDS011;29263;48.172;11.484;2022-08-04T06:05:34;1999.90;;;999.90;;
43664;SDS011;29263;48.172;11.484;2022-08-04T06:08:00;1999.90;;;999.90;;
43664;SDS011;29263;48.172;11.484;2022-08-04T06:10:27;3.13;;;1.88;;
43664;SDS011;29263;48.172;11.484;2022-08-04T06:12:57;78.82;;;25.20;;
43664;SDS011;29263;48.172;11.484;2022-08-04T06:15:27;3.03;;;2.03;;
43664;SDS011;29263;48.172;11.484;2022-08-04T06:17:55;2.92;;;1.98;;
43664;SDS011;29263;48.172;11.484;2022-08-04T06:20:28;2.30;;;1.60;;
43664;SDS011;29263;48.172;11.484;2022-08-04T06:22:56;2.90;;;1.50;;
43664;SDS011;29263;48.172;11.484;2022-08-04T06:25:27;2.67;;;1.50;;
43664;SDS011;29263;48.172;11.484;2022-08-04T06:27:56;3.60;;;1.50;;
43664;SDS011;29263;48.172;11.484;2022-08-04T06:30:22;163.57;;;12.23;;
43664;SDS011;29263;48.172;11.484;2022-08-04T06:32:51;38.97;;;6.72;;
43664;SDS011;29263;48.172;11.484;2022-08-04T06:35:22;68.00;;;14.00;;
43664;SDS011;29263;48.172;11.484;2022-08-04T06:37:50;1695.65;;;761.67;;
43664;SDS011;29263;48.172;11.484;2022-08-04T06:40:18;1999.90;;;999.90;;
43664;SDS011;29263;48.172;11.484;2022-08-04T06:42:46;1999.90;;;999.90;;
43664;SDS011;29263;48.172;11.484;2022-08-04T06:45:13;1999.90;;;999.90;;
43664;SDS011;29263;48.172;11.484;2022-08-04T06:47:40;1999.90;;;999.90;;
43664;SDS011;29263;48.172;11.484;2022-08-04T06:50:07;1999.90;;;999.90;;
43664;SDS011;29263;48.172;11.484;2022-08-04T06:52:34;1999.90;;;999.90;;
43664;SDS011;29263;48.172;11.484;2022-08-04T06:55:00;1999.90;;;999.90;;
43664;SDS011;29263;48.172;11.484;2022-08-04T06:57:27;1999.90;;;999.90;;
43664;SDS011;29263;48.172;11.484;2022-08-04T06:59:55;1999.90;;;999.90;;
43664;SDS011;29263;48.172;11.484;2022-08-04T07:02:25;1999.90;;;999.90;;
43664;SDS011;29263;48.172;11.484;2022-08-04T07:04:53;1999.90;;;999.90;;
43664;SDS011;29263;48.172;11.484;2022-08-04T07:07:20;1999.90;;;999.90;;
43664;SDS011;29263;48.172;11.484;2022-08-04T07:09:48;1999.90;;;999.90;;
43664;SDS011;29263;48.172;11.484;2022-08-04T07:12:14;1999.90;;;999.90;;
43664;SDS011;29263;48.172;11.484;2022-08-04T07:14:46;1999.90;;;999.90;;
43664;SDS011;29263;48.172;11.484;2022-08-04T07:17:14;1999.90;;;999.90;;
43664;SDS011;29263;48.172;11.484;2022-08-04T07:19:41;1999.90;;;999.90;;
43664;SDS011;29263;48.172;11.484;2022-08-04T07:22:08;1999.90;;;999.90;;
43664;SDS011;29263;48.172;11.484;2022-08-04T07:24:35;1999.90;;;999.90;;
43664;SDS011;29263;48.172;11.484;2022-08-04T07:27:02;1999.90;;;999.90;;
43664;SDS011;29263;48.172;11.484;2022-08-04T07:29:29;1999.90;;;999.90;;
43664;SDS011;29263;48.172;11.484;2022-08-04T07:31:56;1999.90;;;999.90;;
43664;SDS011;29263;48.172;11.484;2022-08-04T07:34:23;1999.90;;;999.90;;
43664;SDS011;29263;48.172;11.484;2022-08-04T07:36:50;1999.90;;;999.90;;
43664;SDS011;29263;48.172;11.484;2022-08-04T07:39:17;1999.90;;;999.90;;
43664;SDS011;29263;48.172;11.484;2022-08-04T07:41:44;1999.90;;;999.90;;
43664;SDS011;29263;48.172;11.484;2022-08-04T07:44:11;1999.90;;;999.90;;
43664;SDS011;29263;48.172;11.484;2022-08-04T07:46:38;1999.90;;;999.90;;
43664;SDS011;29263;48.172;11.484;2022-08-04T07:49:04;1999.90;;;999.90;;
43664;SDS011;29263;48.172;11.484;2022-08-04T07:51:31;1999.90;;;999.90;;
43664;SDS011;29263;48.172;11.484;2022-08-04T07:53:59;1999.90;;;999.90;;
43664;SDS011;29263;48.172;11.484;2022-08-04T07:56:27;1999.90;;;999.90;;
43664;SDS011;29263;48.172;11.484;2022-08-04T07:58:54;1999.90;;;999.90;;
43664;SDS011;29263;48.172;11.484;2022-08-04T08:01:20;17.08;;;13.43;;
43664;SDS011;29263;48.172;11.484;2022-08-04T08:03:47;3.05;;;1.83;;
43664;SDS011;29263;48.172;11.484;2022-08-04T08:06:14;57.00;;;6.32;;
43664;SDS011;29263;48.172;11.484;2022-08-04T08:08:40;74.60;;;12.40;;
43664;SDS011;29263;48.172;11.484;2022-08-04T08:11:06;3.50;;;1.60;;
43664;SDS011;29263;48.172;11.484;2022-08-04T08:13:33;20.70;;;5.05;;
43664;SDS011;29263;48.172;11.484;2022-08-04T08:15:59;67.60;;;7.63;;
43664;SDS011;29263;48.172;11.484;2022-08-04T08:18:26;2.35;;;1.65;;
43664;SDS011;29263;48.172;11.484;2022-08-04T08:20:52;1.90;;;1.48;;
43664;SDS011;29263;48.172;11.484;2022-08-04T08:23:17;1.67;;;1.55;;
43664;SDS011;29263;48.172;11.484;2022-08-04T08:25:44;3.63;;;2.10;;
43664;SDS011;29263;48.172;11.484;2022-08-04T08:28:10;2.25;;;1.70;;
43664;SDS011;29263;48.172;11.484;2022-08-04T08:30:36;1.65;;;1.40;;
43664;SDS011;29263;48.172;11.484;2022-08-04T08:33:05;2.80;;;2.30;;
43664;SDS011;29263;48.172;11.484;2022-08-04T08:35:35;26.90;;;3.92;;
43664;SDS011;29263;48.172;11.484;2022-08-04T08:38:27;3.67;;;1.70;;
43664;SDS011;29263;48.172;11.484;2022-08-04T08:57:36;1999.90;;;999.90;;
43664;SDS011;29263;48.172;11.484;2022-08-04T09:05:27;1999.90;;;999.90;;
43664;SDS011;29263;48.172;11.484;2022-08-04T09:13:49;1999.90;;;999.90;;
43664;SDS011;29263;48.172;11.484;2022-08-04T09:16:46;1999.90;;;999.90;;
43664;SDS011;29263;48.172;11.484;2022-08-04T09:24:24;1999.90;;;999.90;;
43664;SDS011;29263;48.172;11.484;2022-08-04T09:27:12;1999.90;;;999.90;;
43664;SDS011;29263;48.172;11.484;2022-08-04T09:35:02;1999.90;;;999.90;;
43664;SDS011;29263;48.172;11.484;2022-08-04T09:38:04;1999.90;;;999.90;;
43664;SDS011;29263;48.172;11.484;2022-08-04T09:43:28;1999.90;;;999.90;;
43664;SDS011;29263;48.172;11.484;2022-08-04T09:48:47;19.77;;;18.83;;
43664;SDS011;29263;48.172;11.484;2022-08-04T09:59:42;91.32;;;39.80;;
43664;SDS011;29263;48.172;11.484;2022-08-04T10:02:27;1999.90;;;999.90;;
43664;SDS011;29263;48.172;11.484;2022-08-04T10:04:59;49.53;;;9.68;;
43664;SDS011;29263;48.172;11.484;2022-08-04T10:10:20;1.40;;;1.23;;
43664;SDS011;29263;48.172;11.484;2022-08-04T10:27:10;3.33;;;1.83;;
43664;SDS011;29263;48.172;11.484;2022-08-04T10:29:47;1.20;;;1.10;;
43664;SDS011;29263;48.172;11.484;2022-08-04T10:40:31;6.72;;;5.00;;
43664;SDS011;29263;48.172;11.484;2022-08-04T10:49:20;4.43;;;1.52;;
43664;SDS011;29263;48.172;11.484;2022-08-04T10:54:14;1.83;;;1.20;;
43664;SDS011;29263;48.172;11.484;2022-08-04T10:56:48;2.33;;;1.25;;
43664;SDS011;29263;48.172;11.484;2022-08-04T10:59:21;1.83;;;1.00;;
43664;SDS011;29263;48.172;11.484;2022-08-04T11:05:04;2.92;;;1.52;;
43664;SDS011;29263;48.172;11.484;2022-08-04T11:07:43;7.80;;;1.67;;
43664;SDS011;29263;48.172;11.484;2022-08-04T11:10:11;1.23;;;0.93;;
43664;SDS011;29263;48.172;11.484;2022-08-04T11:12:38;3.60;;;0.90;;
43664;SDS011;29263;48.172;11.484;2022-08-04T11:17:42;1.23;;;1.00;;
43664;SDS011;29263;48.172;11.484;2022-08-04T11:23:03;5.93;;;1.27;;
43664;SDS011;29263;48.172;11.484;2022-08-04T11:25:35;1.55;;;0.93;;
43664;SDS011;29263;48.172;11.484;2022-08-04T11:34:29;1.75;;;1.23;;
43664;SDS011;29263;48.172;11.484;2022-08-04T11:36:58;1.70;;;1.10;;
43664;SDS011;29263;48.172;11.484;2022-08-04T11:39:35;5.53;;;1.42;;
43664;SDS011;29263;48.172;11.484;2022-08-04T11:42:27;1.45;;;1.10;;
43664;SDS011;29263;48.172;11.484;2022-08-04T11:50:13;3.58;;;1.17;;
43664;SDS011;29263;48.172;11.484;2022-08-04T11:52:52;2.42;;;1.25;;
43664;SDS011;29263;48.172;11.484;2022-08-04T11:55:20;2.60;;;1.63;;
43664;SDS011;29263;48.172;11.484;2022-08-04T11:57:49;5.65;;;1.30;;
43664;SDS011;29263;48.172;11.484;2022-08-04T12:00:15;3.70;;;1.20;;
43664;SDS011;29263;48.172;11.484;2022-08-04T12:12:12;3.17;;;1.25;;
43664;SDS011;29263;48.172;11.484;2022-08-04T12:15:15;2.72;;;1.23;;
43664;SDS011;29263;48.172;11.484;2022-08-04T12:21:13;2.22;;;1.33;;
43664;SDS011;29263;48.172;11.484;2022-08-04T12:23:49;2.75;;;1.00;;
43664;SDS011;29263;48.172;11.484;2022-08-04T12:26:22;1.02;;;1.00;;
43664;SDS011;29263;48.172;11.484;2022-08-04T12:28:57;2.72;;;1.05;;
43664;SDS011;29263;48.172;11.484;2022-08-04T12:31:29;2.08;;;1.17;;
43664;SDS011;29263;48.172;11.484;2022-08-04T12:34:08;4.45;;;1.10;;
43664;SDS011;29263;48.172;11.484;2022-08-04T12:44:46;1.23;;;1.10;;
43664;SDS011;29263;48.172;11.484;2022-08-04T12:47:17;1.40;;;1.05;;
43664;SDS011;29263;48.172;11.484;2022-08-04T12:49:48;1.45;;;1.20;;
43664;SDS011;29263;48.172;11.484;2022-08-04T12:52:15;1.15;;;1.10;;
43664;SDS011;29263;48.172;11.484;2022-08-04T12:54:44;2.42;;;1.60;;
43664;SDS011;29263;48.172;11.484;2022-08-04T12:57:15;1.10;;;1.00;;
43664;SDS011;29263;48.172;11.484;2022-08-04T12:59:42;3.90;;;1.23;;
43664;SDS011;29263;48.172;11.484;2022-08-04T13:02:11;2.35;;;1.08;;
43664;SDS011;29263;48.172;11.484;2022-08-04T13:04:42;1.92;;;1.27;;
43664;SDS011;29263;48.172;11.484;2022-08-04T13:07:11;4.97;;;1.50;;
43664;SDS011;29263;48.172;11.484;2022-08-04T13:09:39;1.98;;;0.95;;
43664;SDS011;29263;48.172;11.484;2022-08-04T13:12:13;5.70;;;1.30;;
43664;SDS011;29263;48.172;11.484;2022-08-04T13:14:47;5.30;;;1.52;;
43664;SDS011;29263;48.172;11.484;2022-08-04T13:17:15;2.65;;;1.05;;
43664;SDS011;29263;48.172;11.484;2022-08-04T13:19:47;3.08;;;1.20;;
43664;SDS011;29263;48.172;11.484;2022-08-04T13:22:25;3.28;;;1.23;;
43664;SDS011;29263;48.172;11.484;2022-08-04T13:24:52;1.33;;;1.17;;
43664;SDS011;29263;48.172;11.484;2022-08-04T13:27:21;3.13;;;1.17;;
43664;SDS011;29263;48.172;11.484;2022-08-04T13:29:49;1.40;;;1.23;;
43664;SDS011;29263;48.172;11.484;2022-08-04T13:32:17;1.15;;;1.05;;
43664;SDS011;29263;48.172;11.484;2022-08-04T13:34:46;1.73;;;1.38;;
43664;SDS011;29263;48.172;11.484;2022-08-04T13:39:43;1.63;;;1.10;;
43664;SDS011;29263;48.172;11.484;2022-08-04T13:42:11;5.07;;;1.55;;
43664;SDS011;29263;48.172;11.484;2022-08-04T13:44:38;1.37;;;1.10;;
43664;SDS011;29263;48.172;11.484;2022-08-04T13:47:07;1.60;;;1.20;;
43664;SDS011;29263;48.172;11.484;2022-08-04T13:49:38;1.20;;;1.10;;
43664;SDS011;29263;48.172;11.484;2022-08-04T13:52:04;1.20;;;1.08;;
43664;SDS011;29263;48.172;11.484;2022-08-04T13:54:35;1.55;;;1.33;;
43664;SDS011;29263;48.172;11.484;2022-08-04T13:57:05;7.25;;;1.35;;
43664;SDS011;29263;48.172;11.484;2022-08-04T13:59:55;2.80;;;1.25;;
43664;SDS011;29263;48.172;11.484;2022-08-04T14:05:14;1.42;;;1.10;;
43664;SDS011;29263;48.172;11.484;2022-08-04T14:07:46;1.23;;;1.13;;
43664;SDS011;29263;48.172;11.484;2022-08-04T14:10:18;3.25;;;1.15;;
43664;SDS011;29263;48.172;11.484;2022-08-04T14:12:45;1.83;;;1.23;;
43664;SDS011;29263;48.172;11.484;2022-08-04T14:18:20;2.83;;;1.00;;
43664;SDS011;29263;48.172;11.484;2022-08-04T14:23:28;4.80;;;2.55;;
43664;SDS011;29263;48.172;11.484;2022-08-04T14:26:15;4.30;;;1.25;;
43664;SDS011;29263;48.172;11.484;2022-08-04T14:28:50;1.42;;;0.98;;
43664;SDS011;29263;48.172;11.484;2022-08-04T14:31:20;3.05;;;1.15;;
43664;SDS011;29263;48.172;11.484;2022-08-04T14:33:47;1.42;;;1.20;;
43664;SDS011;29263;48.172;11.484;2022-08-04T14:36:14;1.13;;;1.08;;
43664;SDS011;29263;48.172;11.484;2022-08-04T14:38:42;3.42;;;1.20;;
43664;SDS011;29263;48.172;11.484;2022-08-04T14:41:20;0.93;;;0.90;;
43664;SDS011;29263;48.172;11.484;2022-08-04T14:46:15;1.50;;;1.40;;
43664;SDS011;29263;48.172;11.484;2022-08-04T14:48:59;2.70;;;1.50;;
43664;SDS011;29263;48.172;11.484;2022-08-04T14:51:25;2.83;;;1.20;;
43664;SDS011;29263;48.172;11.484;2022-08-04T14:53:51;4.40;;;2.50;;
43664;SDS011;29263;48.172;11.484;2022-08-04T14:56:18;4.20;;;2.10;;
43664;SDS011;29263;48.172;11.484;2022-08-04T14:58:44;1.42;;;1.33;;
43664;SDS011;29263;48.172;11.484;2022-08-04T15:01:11;2.25;;;1.08;;
43664;SDS011;29263;48.172;11.484;2022-08-04T15:03:39;1.90;;;1.45;;
43664;SDS011;29263;48.172;11.484;2022-08-04T15:06:07;1.58;;;1.23;;
43664;SDS011;29263;48.172;11.484;2022-08-04T15:08:33;1.30;;;1.20;;
43664;SDS011;29263;48.172;11.484;2022-08-04T15:10:59;3.70;;;1.27;;
43664;SDS011;29263;48.172;11.484;2022-08-04T15:13:27;1.85;;;1.23;;
43664;SDS011;29263;48.172;11.484;2022-08-04T15:15:53;3.20;;;1.20;;
43664;SDS011;29263;48.172;11.484;2022-08-04T15:18:19;1.73;;;1.10;;
43664;SDS011;29263;48.172;11.484;2022-08-04T15:20:45;2.35;;;1.00;;
43664;SDS011;29263;48.172;11.484;2022-08-04T15:23:11;3.50;;;1.35;;
43664;SDS011;29263;48.172;11.484;2022-08-04T15:25:46;1.20;;;1.10;;
43664;SDS011;29263;48.172;11.484;2022-08-04T15:28:16;2.67;;;1.20;;
43664;SDS011;29263;48.172;11.484;2022-08-04T15:30:47;1.20;;;1.10;;
43664;SDS011;29263;48.172;11.484;2022-08-04T15:33:14;1.63;;;1.30;;
43664;SDS011;29263;48.172;11.484;2022-08-04T15:35:47;1.35;;;1.00;;
43664;SDS011;29263;48.172;11.484;2022-08-04T15:38:28;2.17;;;0.98;;
43664;SDS011;29263;48.172;11.484;2022-08-04T15:41:07;2.05;;;1.15;;
43664;SDS011;29263;48.172;11.484;2022-08-04T15:47:01;1.92;;;1.10;;
43664;SDS011;29263;48.172;11.484;2022-08-04T15:49:36;1.20;;;1.00;;
43664;SDS011;29263;48.172;11.484;2022-08-04T15:52:05;2.38;;;1.25;;
43664;SDS011;29263;48.172;11.484;2022-08-04T15:57:00;2.60;;;1.50;;
43664;SDS011;29263;48.172;11.484;2022-08-04T16:02:28;2.47;;;1.33;;
43664;SDS011;29263;48.172;11.484;2022-08-04T16:05:10;3.72;;;1.38;;
43664;SDS011;29263;48.172;11.484;2022-08-04T16:07:55;1.38;;;1.00;;
43664;SDS011;29263;48.172;11.484;2022-08-04T16:12:54;3.45;;;0.90;;
43664;SDS011;29263;48.172;11.484;2022-08-04T16:20:49;1.70;;;1.00;;
43664;SDS011;29263;48.172;11.484;2022-08-04T16:26:43;1.20;;;1.00;;
43664;SDS011;29263;48.172;11.484;2022-08-04T16:34:32;1.90;;;1.00;;
43664;SDS011;29263;48.172;11.484;2022-08-04T16:37:08;1.10;;;1.00;;
43664;SDS011;29263;48.172;11.484;2022-08-04T16:39:35;1.50;;;1.20;;
43664;SDS011;29263;48.172;11.484;2022-08-04T16:52:44;2.90;;;1.00;;
43664;SDS011;29263;48.172;11.484;2022-08-04T16:55:13;1.40;;;1.00;;
43664;SDS011;29263;48.172;11.484;2022-08-04T16:57:40;2.20;;;1.20;;
43664;SDS011;29263;48.172;11.484;2022-08-04T17:00:10;1.00;;;0.90;;
43664;SDS011;29263;48.172;11.484;2022-08-04T17:02:35;2.03;;;0.98;;
43664;SDS011;29263;48.172;11.484;2022-08-04T17:05:01;1.20;;;1.10;;
43664;SDS011;29263;48.172;11.484;2022-08-04T17:07:27;2.58;;;1.00;;
43664;SDS011;29263;48.172;11.484;2022-08-04T17:09:52;1.50;;;1.05;;
43664;SDS011;29263;48.172;11.484;2022-08-04T17:12:19;2.33;;;1.17;;
43664;SDS011;29263;48.172;11.484;2022-08-04T17:14:52;1.50;;;1.23;;
43664;SDS011;29263;48.172;11.484;2022-08-04T17:17:18;3.83;;;1.20;;
43664;SDS011;29263;48.172;11.484;2022-08-04T17:19:50;1.77;;;0.98;;
43664;SDS011;29263;48.172;11.484;2022-08-04T17:22:17;1.20;;;1.10;;
43664;SDS011;29263;48.172;11.484;2022-08-04T17:24:44;1.13;;;0.98;;
43664;SDS011;29263;48.172;11.484;2022-08-04T17:27:09;1.17;;;0.90;;
43664;SDS011;29263;48.172;11.484;2022-08-04T17:29:36;3.20;;;1.10;;
43664;SDS011;29263;48.172;11.484;2022-08-04T17:32:02;1.40;;;0.98;;
43664;SDS011;29263;48.172;11.484;2022-08-04T17:34:28;2.55;;;1.10;;
43664;SDS011;29263;48.172;11.484;2022-08-04T17:36:54;1.38;;;1.00;;
43664;SDS011;29263;48.172;11.484;2022-08-04T17:39:20;1.10;;;0.80;;
43664;SDS011;29263;48.172;11.484;2022-08-04T17:41:53;2.20;;;0.97;;
43664;SDS011;29263;48.172;11.484;2022-08-04T17:44:19;4.35;;;1.08;;
43664;SDS011;29263;48.172;11.484;2022-08-04T17:46:45;2.72;;;1.05;;
43664;SDS011;29263;48.172;11.484;2022-08-04T17:51:41;1.80;;;1.02;;
43664;SDS011;29263;48.172;11.484;2022-08-04T17:54:23;2.30;;;0.95;;
43664;SDS011;29263;48.172;11.484;2022-08-04T17:57:00;1.35;;;1.00;;
43664;SDS011;29263;48.172;11.484;2022-08-04T18:02:10;2.67;;;0.98;;
43664;SDS011;29263;48.172;11.484;2022-08-04T18:07:21;2.50;;;1.58;;
43664;SDS011;29263;48.172;11.484;2022-08-04T18:09:54;1.20;;;1.10;;
43664;SDS011;29263;48.172;11.484;2022-08-04T18:14:53;1.52;;;1.10;;
43664;SDS011;29263;48.172;11.484;2022-08-04T18:17:31;1.55;;;1.40;;
43664;SDS011;29263;48.172;11.484;2022-08-04T18:19:57;1.30;;;1.13;;
43664;SDS011;29263;48.172;11.484;2022-08-04T18:22:23;2.88;;;1.20;;
43664;SDS011;29263;48.172;11.484;2022-08-04T18:24:49;2.25;;;1.20;;
43664;SDS011;29263;48.172;11.484;2022-08-04T18:27:15;1.25;;;1.10;;
43664;SDS011;29263;48.172;11.484;2022-08-04T18:29:42;1.52;;;1.42;;
43664;SDS011;29263;48.172;11.484;2022-08-04T18:32:07;2.35;;;1.15;;
43664;SDS011;29263;48.172;11.484;2022-08-04T18:34:34;1.42;;;1.10;;
43664;SDS011;29263;48.172;11.484;2022-08-04T18:37:01;1.77;;;1.20;;
43664;SDS011;29263;48.172;11.484;2022-08-04T18:39:27;1.90;;;1.20;;
43664;SDS011;29263;48.172;11.484;2022-08-04T18:41:54;1.13;;;1.02;;
43664;SDS011;29263;48.172;11.484;2022-08-04T18:44:20;5.25;;;1.40;;
43664;SDS011;29263;48.172;11.484;2022-08-04T18:46:46;5.85;;;1.13;;
43664;SDS011;29263;48.172;11.484;2022-08-04T18:49:12;3.80;;;1.05;;
43664;SDS011;29263;48.172;11.484;2022-08-04T18:51:38;1.02;;;0.93;;
43664;SDS011;29263;48.172;11.484;2022-08-04T18:54:04;5.65;;;1.33;;
43664;SDS011;29263;48.172;11.484;2022-08-04T18:56:30;1.67;;;1.35;;
43664;SDS011;29263;48.172;11.484;2022-08-04T18:58:56;2.67;;;1.13;;
43664;SDS011;29263;48.172;11.484;2022-08-04T19:01:23;2.22;;;1.45;;
43664;SDS011;29263;48.172;11.484;2022-08-04T19:03:48;2.63;;;1.20;;
43664;SDS011;29263;48.172;11.484;2022-08-04T19:06:15;3.28;;;1.30;;
43664;SDS011;29263;48.172;11.484;2022-08-04T19:08:40;2.20;;;1.33;;
43664;SDS011;29263;48.172;11.484;2022-08-04T19:11:06;1.58;;;1.10;;
43664;SDS011;29263;48.172;11.484;2022-08-04T19:13:32;2.15;;;1.55;;
43664;SDS011;29263;48.172;11.484;2022-08-04T19:15:58;3.45;;;1.20;;
43664;SDS011;29263;48.172;11.484;2022-08-04T19:18:24;4.35;;;1.90;;
43664;SDS011;29263;48.172;11.484;2022-08-04T19:20:50;3.42;;;1.48;;
43664;SDS011;29263;48.172;11.484;2022-08-04T19:23:18;3.42;;;1.95;;
43664;SDS011;29263;48.172;11.484;2022-08-04T19:25:44;3.00;;;1.33;;
43664;SDS011;29263;48.172;11.484;2022-08-04T19:28:10;1.70;;;1.52;;
43664;SDS011;29263;48.172;11.484;2022-08-04T19:30:36;2.80;;;1.50;;
43664;SDS011;29263;48.172;11.484;2022-08-04T19:33:02;2.08;;;1.58;;
43664;SDS011;29263;48.172;11.484;2022-08-04T19:35:28;2.53;;;1.48;;
43664;SDS011;29263;48.172;11.484;2022-08-04T19:37:54;1.73;;;1.40;;
43664;SDS011;29263;48.172;11.484;2022-08-04T19:40:19;3.28;;;1.80;;
43664;SDS011;29263;48.172;11.484;2022-08-04T19:42:45;3.08;;;1.30;;
43664;SDS011;29263;48.172;11.484;2022-08-04T19:45:11;4.00;;;1.73;;
43664;SDS011;29263;48.172;11.484;2022-08-04T19:47:36;2.28;;;1.40;;
43664;SDS011;29263;48.172;11.484;2022-08-04T19:50:03;4.30;;;2.40;;
43664;SDS011;29263;48.172;11.484;2022-08-04T19:52:29;3.17;;;1.60;;
43664;SDS011;29263;48.172;11.484;2022-08-04T19:54:55;1.42;;;1.30;;
43664;SDS011;29263;48.172;11.484;2022-08-04T19:57:21;4.00;;;1.58;;
43664;SDS011;29263;48.172;11.484;2022-08-04T19:59:46;2.03;;;1.52;;
43664;SDS011;29263;48.172;11.484;2022-08-04T20:02:12;4.65;;;2.55;;
43664;SDS011;29263;48.172;11.484;2022-08-04T20:04:38;2.20;;;1.50;;
43664;SDS011;29263;48.172;11.484;2022-08-04T20:07:03;5.00;;;1.50;;
43664;SDS011;29263;48.172;11.484;2022-08-04T20:09:29;2.25;;;1.45;;
43664;SDS011;29263;48.172;11.484;2022-08-04T20:11:55;3.13;;;1.40;;
43664;SDS011;29263;48.172;11.484;2022-08-04T20:14:21;4.88;;;1.60;;
43664;SDS011;29263;48.172;11.484;2022-08-04T20:16:48;2.42;;;1.65;;
43664;SDS011;29263;48.172;11.484;2022-08-04T20:19:14;5.53;;;1.85;;
43664;SDS011;29263;48.172;11.484;2022-08-04T20:21:40;3.55;;;1.92;;
43664;SDS011;29263;48.172;11.484;2022-08-04T20:24:05;2.78;;;1.60;;
43664;SDS011;29263;48.172;11.484;2022-08-04T20:26:31;3.10;;;1.80;;
43664;SDS011;29263;48.172;11.484;2022-08-04T20:28:57;2.35;;;1.73;;
43664;SDS011;29263;48.172;11.484;2022-08-04T20:31:22;2.72;;;1.70;;
43664;SDS011;29263;48.172;11.484;2022-08-04T20:33:48;4.18;;;1.55;;
43664;SDS011;29263;48.172;11.484;2022-08-04T20:36:14;2.80;;;1.67;;
43664;SDS011;29263;48.172;11.484;2022-08-04T20:38:39;4.22;;;2.05;;
43664;SDS011;29263;48.172;11.484;2022-08-04T20:41:05;3.92;;;2.00;;
43664;SDS011;29263;48.172;11.484;2022-08-04T20:43:32;2.17;;;1.52;;
43664;SDS011;29263;48.172;11.484;2022-08-04T20:45:58;3.50;;;2.40;;
43664;SDS011;29263;48.172;11.484;2022-08-04T20:48:27;3.70;;;1.70;;
43664;SDS011;29263;48.172;11.484;2022-08-04T20:50:53;3.55;;;1.63;;
43664;SDS011;29263;48.172;11.484;2022-08-04T20:53:19;3.53;;;1.95;;
43664;SDS011;29263;48.172;11.484;2022-08-04T20:55:45;5.07;;;1.90;;
43664;SDS011;29263;48.172;11.484;2022-08-04T20:58:11;2.38;;;1.75;;
43664;SDS011;29263;48.172;11.484;2022-08-04T21:00:37;3.88;;;2.10;;
43664;SDS011;29263;48.172;11.484;2022-08-04T21:03:03;2.58;;;1.73;;
43664;SDS011;29263;48.172;11.484;2022-08-04T21:05:28;3.55;;;2.10;;
43664;SDS011;29263;48.172;11.484;2022-08-04T21:07:54;2.50;;;1.88;;
43664;SDS011;29263;48.172;11.484;2022-08-04T21:10:21;2.08;;;1.50;;
43664;SDS011;29263;48.172;11.484;2022-08-04T21:12:48;3.80;;;1.83;;
43664;SDS011;29263;48.172;11.484;2022-08-04T21:15:14;2.25;;;1.75;;
43664;SDS011;29263;48.172;11.484;2022-08-04T21:17:40;2.58;;;1.90;;
43664;SDS011;29263;48.172;11.484;2022-08-04T21:20:06;3.60;;;1.95;;
43664;SDS011;29263;48.172;11.484;2022-08-04T21:22:32;3.05;;;2.15;;
43664;SDS011;29263;48.172;11.484;2022-08-04T21:24:58;2.63;;;1.85;;
43664;SDS011;29263;48.172;11.484;2022-08-04T21:27:23;2.33;;;2.08;;
43664;SDS011;29263;48.172;11.484;2022-08-04T21:29:49;2.35;;;1.67;;
43664;SDS011;29263;48.172;11.484;2022-08-04T21:32:15;2.35;;;1.90;;